createdAt,value
2023-02-28T00:00:56.274Z,4.40
2023-02-28T00:01:56.250Z,4.00
2023-02-28T00:02:56.232Z,4.70
2023-02-28T00:03:56.249Z,3.90
2023-02-28T00:04:56.233Z,4.10
2023-02-28T00:05:56.269Z,4.00
2023-02-28T00:06:57.670Z,4.00
2023-02-28T00:07:56.217Z,4.10
2023-02-28T00:08:56.539Z,4.00
2023-02-28T00:09:56.210Z,4.20
2023-02-28T00:10:56.228Z,4.00
2023-02-28T00:11:56.171Z,4.10
2023-02-28T00:12:56.190Z,4.30
2023-02-28T00:13:56.321Z,4.00
2023-02-28T00:14:56.168Z,4.50
2023-02-28T00:15:56.152Z,4.60
2023-02-28T00:16:56.169Z,4.40
2023-02-28T00:17:56.132Z,4.50
2023-02-28T00:18:56.160Z,4.40
2023-02-28T00:19:56.116Z,4.50
2023-02-28T00:20:56.125Z,4.50
2023-02-28T00:21:56.099Z,5.00
2023-02-28T00:22:56.123Z,4.50
2023-02-28T00:23:56.127Z,4.30
2023-02-28T00:24:56.101Z,4.20
2023-02-28T00:25:56.837Z,4.50
2023-02-28T00:26:56.090Z,4.70
2023-02-28T00:27:56.074Z,4.30
2023-02-28T00:28:56.093Z,4.60
2023-02-28T00:29:56.233Z,4.40
2023-02-28T00:30:56.092Z,5.10
2023-02-28T00:31:56.066Z,4.40
2023-02-28T00:32:56.044Z,4.70
2023-02-28T00:33:56.051Z,5.00
2023-02-28T00:34:56.072Z,4.70
2023-02-28T00:35:56.021Z,4.30
2023-02-28T00:36:56.042Z,4.30
2023-02-28T00:37:56.011Z,4.50
2023-02-28T00:38:56.049Z,4.60
2023-02-28T00:39:56.009Z,4.20
2023-02-28T00:40:55.988Z,3.90
2023-02-28T00:41:55.973Z,4.80
2023-02-28T00:42:56.334Z,4.60
2023-02-28T00:43:55.980Z,4.50
2023-02-28T00:44:56.552Z,4.30
2023-02-28T00:45:56.004Z,5.00
2023-02-28T00:46:56.569Z,4.60
2023-02-28T00:47:56.574Z,4.70
2023-02-28T00:48:56.590Z,4.80
2023-02-28T00:49:55.926Z,4.70
2023-02-28T00:50:55.950Z,4.70
2023-02-28T00:51:56.827Z,4.50
2023-02-28T00:52:56.785Z,4.70
2023-02-28T00:53:55.904Z,4.70
2023-02-28T00:54:56.845Z,4.70
2023-02-28T00:55:55.904Z,4.40
2023-02-28T00:56:55.894Z,4.30
2023-02-28T00:57:55.875Z,4.90
2023-02-28T00:58:55.873Z,4.80
2023-02-28T00:59:55.902Z,4.70
2023-02-28T01:00:55.873Z,4.90
2023-02-28T01:01:55.853Z,5.00
2023-02-28T01:02:55.845Z,4.90
2023-02-28T01:03:55.844Z,4.70
2023-02-28T01:04:55.860Z,4.90
2023-02-28T01:05:55.871Z,4.70
2023-02-28T01:06:55.854Z,4.70
2023-02-28T01:07:55.822Z,4.60
2023-02-28T01:08:55.876Z,4.40
2023-02-28T01:09:56.115Z,4.50
2023-02-28T01:10:56.132Z,4.40
2023-02-28T01:11:55.809Z,4.40
2023-02-28T01:12:56.139Z,4.70
2023-02-28T01:13:56.168Z,4.50
2023-02-28T01:14:56.338Z,4.40
2023-02-28T01:15:55.886Z,4.40
2023-02-28T01:16:55.779Z,4.50
2023-02-28T01:17:55.748Z,4.40
2023-02-28T01:18:55.748Z,4.60
2023-02-28T01:19:55.760Z,4.80
2023-02-28T01:20:55.767Z,4.60
2023-02-28T01:21:55.827Z,4.60
2023-02-28T01:22:55.749Z,4.60
2023-02-28T01:23:55.731Z,4.80
2023-02-28T01:24:55.747Z,4.60
2023-02-28T01:25:55.773Z,4.80
2023-02-28T01:26:55.715Z,4.90
2023-02-28T01:27:55.810Z,4.80
2023-02-28T01:28:55.695Z,4.40
2023-02-28T01:29:55.704Z,4.90
2023-02-28T01:30:55.715Z,4.60
2023-02-28T01:31:55.764Z,4.90
2023-02-28T01:32:55.681Z,4.80
2023-02-28T01:33:55.662Z,4.30
2023-02-28T01:34:55.681Z,4.60
2023-02-28T01:35:55.691Z,4.60
2023-02-28T01:36:55.952Z,4.80
2023-02-28T01:37:55.907Z,4.70
2023-02-28T01:38:55.909Z,4.70
2023-02-28T01:39:55.916Z,4.50
2023-02-28T01:40:55.608Z,4.80
2023-02-28T01:41:55.596Z,4.70
2023-02-28T01:42:56.143Z,4.50
2023-02-28T01:43:55.729Z,4.50
2023-02-28T01:44:55.732Z,4.50
2023-02-28T01:45:55.728Z,4.60
2023-02-28T01:46:55.654Z,4.70
2023-02-28T01:47:55.744Z,5.20
2023-02-28T01:48:55.564Z,4.70
2023-02-28T01:49:55.965Z,4.90
2023-02-28T01:50:55.560Z,4.50
2023-02-28T01:51:56.994Z,4.90
2023-02-28T01:52:55.530Z,5.10
2023-02-28T01:53:56.140Z,5.00
2023-02-28T01:54:55.600Z,4.80
2023-02-28T01:55:55.507Z,4.80
2023-02-28T01:56:55.499Z,4.70
2023-02-28T01:57:55.827Z,4.40
2023-02-28T01:58:56.203Z,4.80
2023-02-28T01:59:55.611Z,4.60
2023-02-28T02:00:55.487Z,4.60
2023-02-28T02:01:55.556Z,4.80
2023-02-28T02:02:55.569Z,4.60
2023-02-28T02:03:55.517Z,4.70
2023-02-28T02:04:55.462Z,5.00
2023-02-28T02:05:56.295Z,4.60
2023-02-28T02:06:55.443Z,4.60
2023-02-28T02:07:56.229Z,4.80
2023-02-28T02:08:55.438Z,4.70
2023-02-28T02:09:56.284Z,4.70
2023-02-28T02:10:56.365Z,4.50
2023-02-28T02:11:56.352Z,4.70
2023-02-28T02:12:55.703Z,4.70
2023-02-28T02:13:56.406Z,4.70
2023-02-28T02:14:55.441Z,4.60
2023-02-28T02:15:55.605Z,4.60
2023-02-28T02:16:55.393Z,4.90
2023-02-28T02:17:56.281Z,4.60
2023-02-28T02:18:56.191Z,5.00
2023-02-28T02:19:56.839Z,5.10
2023-02-28T02:20:55.511Z,4.90
2023-02-28T02:21:55.349Z,5.50
2023-02-28T02:22:55.359Z,5.60
2023-02-28T02:23:55.370Z,5.20
2023-02-28T02:24:55.370Z,5.40
2023-02-28T02:25:55.337Z,5.50
2023-02-28T02:26:55.378Z,5.00
2023-02-28T02:27:55.386Z,5.50
2023-02-28T02:28:55.408Z,5.20
2023-02-28T02:29:55.396Z,5.20
2023-02-28T02:30:55.406Z,5.30
2023-02-28T02:31:55.498Z,5.20
2023-02-28T02:32:55.416Z,5.30
2023-02-28T02:33:55.279Z,4.50
2023-02-28T02:34:55.278Z,5.00
2023-02-28T02:35:55.301Z,5.00
2023-02-28T02:36:55.477Z,5.20
2023-02-28T02:37:55.268Z,5.20
2023-02-28T02:38:55.252Z,5.00
2023-02-28T02:39:55.257Z,5.20
2023-02-28T02:40:55.236Z,5.30
2023-02-28T02:41:55.503Z,5.00
2023-02-28T02:42:55.212Z,5.10
2023-02-28T02:43:55.703Z,5.00
2023-02-28T02:44:55.220Z,5.10
2023-02-28T02:45:55.712Z,5.20
2023-02-28T02:46:55.753Z,5.10
2023-02-28T02:47:55.518Z,5.40
2023-02-28T02:48:55.190Z,5.00
2023-02-28T02:49:55.197Z,5.10
2023-02-28T02:50:55.171Z,5.30
2023-02-28T02:51:55.171Z,4.70
2023-02-28T02:52:55.165Z,4.70
2023-02-28T02:53:55.167Z,4.40
2023-02-28T02:54:56.622Z,4.70
2023-02-28T02:55:55.154Z,5.00
2023-02-28T02:56:55.135Z,4.80
2023-02-28T02:57:55.127Z,4.50
2023-02-28T02:58:55.119Z,4.90
2023-02-28T02:59:55.198Z,4.70
2023-02-28T03:00:55.291Z,5.30
2023-02-28T03:01:55.107Z,4.50
2023-02-28T03:02:55.097Z,4.60
2023-02-28T03:03:55.104Z,5.00
2023-02-28T03:04:55.115Z,4.70
2023-02-28T03:05:55.083Z,4.50
2023-02-28T03:06:55.447Z,4.50
2023-02-28T03:07:55.485Z,4.80
2023-02-28T03:08:55.057Z,4.70
2023-02-28T03:09:55.073Z,4.60
2023-02-28T03:10:55.056Z,4.30
2023-02-28T03:11:55.473Z,4.40
2023-02-28T03:12:55.033Z,4.40
2023-02-28T03:13:55.031Z,4.40
2023-02-28T03:14:55.489Z,4.70
2023-02-28T03:15:55.528Z,4.40
2023-02-28T03:16:56.462Z,4.50
2023-02-28T03:17:55.028Z,4.30
2023-02-28T03:18:55.000Z,4.30
2023-02-28T03:19:55.031Z,4.30
2023-02-28T03:20:54.981Z,4.40
2023-02-28T03:21:54.981Z,4.50
2023-02-28T03:22:54.974Z,4.20
2023-02-28T03:23:55.550Z,4.30
2023-02-28T03:24:55.559Z,4.50
2023-02-28T03:25:54.975Z,4.30
2023-02-28T03:26:55.602Z,4.20
2023-02-28T03:27:55.611Z,4.10
2023-02-28T03:28:54.991Z,4.50
2023-02-28T03:29:54.937Z,4.30
2023-02-28T03:30:54.996Z,4.40
2023-02-28T03:31:55.085Z,4.40
2023-02-28T03:32:55.022Z,4.30
2023-02-28T03:33:54.909Z,4.20
2023-02-28T03:34:54.907Z,4.30
2023-02-28T03:35:54.942Z,4.70
2023-02-28T03:36:54.977Z,4.30
2023-02-28T03:37:54.906Z,4.00
2023-02-28T03:38:54.876Z,4.10
2023-02-28T03:39:54.883Z,4.10
2023-02-28T03:40:54.877Z,4.30
2023-02-28T03:41:54.881Z,4.40
2023-02-28T03:42:54.865Z,4.30
2023-02-28T03:43:54.860Z,4.10
2023-02-28T03:44:54.836Z,4.20
2023-02-28T03:45:54.866Z,4.10
2023-02-28T03:46:55.088Z,4.70
2023-02-28T03:47:55.140Z,4.20
2023-02-28T03:48:54.833Z,4.20
2023-02-28T03:49:54.825Z,4.00
2023-02-28T03:50:54.816Z,4.30
2023-02-28T03:51:54.796Z,4.60
2023-02-28T03:52:54.793Z,3.70
2023-02-28T03:53:54.784Z,4.70
2023-02-28T03:54:54.772Z,3.80
2023-02-28T03:55:54.792Z,3.90
2023-02-28T03:56:54.787Z,3.60
2023-02-28T03:57:54.761Z,3.90
2023-02-28T03:58:54.751Z,4.10
2023-02-28T03:59:54.763Z,4.10
2023-02-28T04:00:54.765Z,4.00
2023-02-28T04:01:54.752Z,4.00
2023-02-28T04:02:55.692Z,4.00
2023-02-28T04:03:55.593Z,4.50
2023-02-28T04:04:55.254Z,4.20
2023-02-28T04:05:54.759Z,4.20
2023-02-28T04:06:55.557Z,4.10
2023-02-28T04:07:54.719Z,4.00
2023-02-28T04:08:54.694Z,4.20
2023-02-28T04:09:54.696Z,4.20
2023-02-28T04:10:54.704Z,4.10
2023-02-28T04:11:54.698Z,4.10
2023-02-28T04:12:54.680Z,4.20
2023-02-28T04:13:54.679Z,4.00
2023-02-28T04:14:54.656Z,4.10
2023-02-28T04:15:54.712Z,3.90
2023-02-28T04:16:54.664Z,4.30
2023-02-28T04:17:54.660Z,4.30
2023-02-28T04:18:54.645Z,4.30
2023-02-28T04:19:54.693Z,4.10
2023-02-28T04:20:54.703Z,4.10
2023-02-28T04:21:54.640Z,4.20
2023-02-28T04:22:54.624Z,4.10
2023-02-28T04:23:54.621Z,4.00
2023-02-28T04:24:54.624Z,4.00
2023-02-28T04:25:54.642Z,3.80
2023-02-28T04:26:54.606Z,4.30
2023-02-28T04:27:54.582Z,3.80
2023-02-28T04:28:54.590Z,3.90
2023-02-28T04:29:54.612Z,3.80
2023-02-28T04:30:54.563Z,3.80
2023-02-28T04:31:54.752Z,3.90
2023-02-28T04:32:54.544Z,4.10
2023-02-28T04:33:54.538Z,4.10
2023-02-28T04:34:54.561Z,3.80
2023-02-28T04:35:54.576Z,3.90
2023-02-28T04:37:06.376Z,3.80
2023-02-28T04:37:54.513Z,4.40
2023-02-28T04:38:54.512Z,3.90
2023-02-28T04:39:54.522Z,3.80
2023-02-28T04:40:54.518Z,4.10
2023-02-28T04:41:54.507Z,3.90
2023-02-28T04:42:54.511Z,3.60
2023-02-28T04:43:54.490Z,4.10
2023-02-28T04:44:54.475Z,4.10
2023-02-28T04:45:54.494Z,3.80
2023-02-28T04:46:54.494Z,4.00
2023-02-28T04:47:54.454Z,4.10
2023-02-28T04:48:54.442Z,4.10
2023-02-28T04:49:54.471Z,4.30
2023-02-28T04:50:54.465Z,4.20
2023-02-28T04:51:55.106Z,4.20
2023-02-28T04:52:54.430Z,4.30
2023-02-28T04:53:54.440Z,4.30
2023-02-28T04:54:54.411Z,4.20
2023-02-28T04:55:55.200Z,4.30
2023-02-28T04:56:54.528Z,4.40
2023-02-28T04:57:54.412Z,4.40
2023-02-28T04:58:54.408Z,4.40
2023-02-28T04:59:54.476Z,4.40
2023-02-28T05:00:54.387Z,4.20
2023-02-28T05:01:54.520Z,4.30
2023-02-28T05:02:54.352Z,4.20
2023-02-28T05:03:54.364Z,4.30
2023-02-28T05:04:54.434Z,4.30
2023-02-28T05:05:54.371Z,4.80
2023-02-28T05:06:54.366Z,4.20
2023-02-28T05:07:54.383Z,4.70
2023-02-28T05:08:54.403Z,4.20
2023-02-28T05:09:54.343Z,4.00
2023-02-28T05:10:54.704Z,4.00
2023-02-28T05:11:54.320Z,4.10
2023-02-28T05:12:54.917Z,4.30
2023-02-28T05:13:54.378Z,4.30
2023-02-28T05:14:54.432Z,4.30
2023-02-28T05:15:54.312Z,4.20
2023-02-28T05:16:54.727Z,4.20
2023-02-28T05:17:54.283Z,4.80
2023-02-28T05:18:54.358Z,4.30
2023-02-28T05:19:57.178Z,4.70
2023-02-28T05:20:55.709Z,4.20
2023-02-28T05:21:54.270Z,4.50
2023-02-28T05:22:54.264Z,4.50
2023-02-28T05:23:55.727Z,4.40
2023-02-28T05:24:54.256Z,4.30
2023-02-28T05:25:54.235Z,4.60
2023-02-28T05:26:54.356Z,4.20
2023-02-28T05:27:54.296Z,4.60
2023-02-28T05:28:54.217Z,4.40
2023-02-28T05:29:54.248Z,4.40
2023-02-28T05:30:54.544Z,4.60
2023-02-28T05:31:54.651Z,4.60
2023-02-28T05:32:56.608Z,4.60
2023-02-28T05:33:54.198Z,4.40
2023-02-28T05:34:54.182Z,4.50
2023-02-28T05:35:54.205Z,4.60
2023-02-28T05:36:54.420Z,4.80
2023-02-28T05:37:54.194Z,5.00
2023-02-28T05:38:55.599Z,4.50
2023-02-28T05:39:54.269Z,4.80
2023-02-28T05:40:54.159Z,4.80
2023-02-28T05:41:54.152Z,4.30
2023-02-28T05:42:54.418Z,4.30
2023-02-28T05:43:54.124Z,4.40
2023-02-28T05:44:54.123Z,4.70
2023-02-28T05:45:54.236Z,4.60
2023-02-28T05:46:54.129Z,4.80
2023-02-28T05:47:54.118Z,4.40
2023-02-28T05:48:54.183Z,4.50
2023-02-28T05:49:54.087Z,4.70
2023-02-28T05:50:54.075Z,4.60
2023-02-28T05:51:54.167Z,4.50
2023-02-28T05:52:54.078Z,5.00
2023-02-28T05:53:55.514Z,4.60
2023-02-28T05:54:54.092Z,4.50
2023-02-28T05:55:54.076Z,4.50
2023-02-28T05:56:55.491Z,4.30
2023-02-28T05:57:55.525Z,4.40
2023-02-28T05:58:54.035Z,4.70
2023-02-28T05:59:54.022Z,4.70
2023-02-28T06:00:54.275Z,4.70
2023-02-28T06:01:54.133Z,4.80
2023-02-28T06:02:55.487Z,4.70
2023-02-28T06:03:54.358Z,4.80
2023-02-28T06:04:55.447Z,4.70
2023-02-28T06:05:54.358Z,4.50
2023-02-28T06:06:53.981Z,4.70
2023-02-28T06:07:53.984Z,4.80
2023-02-28T06:08:54.477Z,4.70
2023-02-28T06:09:54.066Z,5.00
2023-02-28T06:10:53.962Z,4.60
2023-02-28T06:11:53.962Z,4.90
2023-02-28T06:12:53.967Z,4.90
2023-02-28T06:13:54.003Z,5.10
2023-02-28T06:14:53.932Z,4.60
2023-02-28T06:15:53.930Z,4.80
2023-02-28T06:16:54.020Z,4.70
2023-02-28T06:17:53.942Z,5.00
2023-02-28T06:18:53.912Z,5.20
2023-02-28T06:19:53.924Z,4.90
2023-02-28T06:20:53.962Z,4.90
2023-02-28T06:21:53.930Z,5.00
2023-02-28T06:22:53.909Z,4.80
2023-02-28T06:23:53.924Z,4.60
2023-02-28T06:24:53.954Z,4.50
2023-02-28T06:25:53.937Z,4.90
2023-02-28T06:26:55.330Z,4.70
2023-02-28T06:27:55.310Z,4.90
2023-02-28T06:28:53.845Z,4.60
2023-02-28T06:29:53.838Z,4.60
2023-02-28T06:30:54.213Z,4.70
2023-02-28T06:31:54.090Z,4.80
2023-02-28T06:32:53.887Z,4.80
2023-02-28T06:33:55.278Z,4.60
2023-02-28T06:34:53.826Z,4.80
2023-02-28T06:35:54.519Z,5.00
2023-02-28T06:36:53.796Z,4.70
2023-02-28T06:37:54.170Z,5.50
2023-02-28T06:38:55.246Z,5.40
2023-02-28T06:39:55.235Z,5.20
2023-02-28T06:40:53.795Z,4.70
2023-02-28T06:41:55.992Z,4.50
2023-02-28T06:42:53.787Z,4.80
2023-02-28T06:43:53.822Z,4.70
2023-02-28T06:44:53.743Z,4.60
2023-02-28T06:45:53.750Z,4.50
2023-02-28T06:46:53.793Z,4.90
2023-02-28T06:47:53.784Z,4.90
2023-02-28T06:48:53.756Z,4.70
2023-02-28T06:49:53.731Z,4.70
2023-02-28T06:50:53.743Z,4.70
2023-02-28T06:51:53.850Z,4.80
2023-02-28T06:52:53.734Z,4.80
2023-02-28T06:53:53.830Z,4.90
2023-02-28T06:54:53.713Z,4.90
2023-02-28T06:55:53.681Z,5.00
2023-02-28T06:56:53.689Z,4.80
2023-02-28T06:57:53.694Z,4.80
2023-02-28T06:58:53.689Z,5.10
2023-02-28T06:59:53.649Z,4.60
2023-02-28T07:00:53.702Z,5.00
2023-02-28T07:01:53.746Z,5.10
2023-02-28T07:02:53.680Z,5.10
2023-02-28T07:03:53.634Z,4.80
2023-02-28T07:04:53.657Z,5.00
2023-02-28T07:05:53.638Z,4.90
2023-02-28T07:06:53.644Z,4.80
2023-02-28T07:07:53.770Z,5.20
2023-02-28T07:08:53.654Z,4.60
2023-02-28T07:09:53.622Z,5.10
2023-02-28T07:10:53.645Z,4.90
2023-02-28T07:11:53.609Z,5.20
2023-02-28T07:12:53.579Z,5.30
2023-02-28T07:13:53.708Z,5.10
2023-02-28T07:14:53.660Z,5.20
2023-02-28T07:15:53.644Z,4.70
2023-02-28T07:16:53.712Z,4.80
2023-02-28T07:17:53.546Z,5.00
2023-02-28T07:18:53.723Z,5.40
2023-02-28T07:19:53.724Z,5.50
2023-02-28T07:20:53.516Z,5.40
2023-02-28T07:21:53.608Z,5.40
2023-02-28T07:22:53.775Z,5.40
2023-02-28T07:23:53.784Z,5.30
2023-02-28T07:24:53.513Z,5.50
2023-02-28T07:25:53.504Z,5.90
2023-02-28T07:26:53.493Z,5.60
2023-02-28T07:27:53.484Z,5.70
2023-02-28T07:28:53.523Z,5.70
2023-02-28T07:29:53.502Z,5.30
2023-02-28T07:30:53.556Z,6.20
2023-02-28T07:31:53.564Z,5.90
2023-02-28T07:32:53.468Z,6.20
2023-02-28T07:33:54.919Z,6.30
2023-02-28T07:34:53.448Z,5.80
2023-02-28T07:35:53.506Z,6.40
2023-02-28T07:36:54.884Z,6.20
2023-02-28T07:37:53.432Z,6.10
2023-02-28T07:38:53.941Z,6.00
2023-02-28T07:39:53.416Z,5.70
2023-02-28T07:40:53.433Z,6.00
2023-02-28T07:41:53.412Z,5.50
2023-02-28T07:42:53.410Z,6.10
2023-02-28T07:43:53.397Z,5.80
2023-02-28T07:44:54.117Z,5.00
2023-02-28T07:45:53.377Z,5.00
2023-02-28T07:46:53.406Z,4.90
2023-02-28T07:47:53.390Z,4.80
2023-02-28T07:48:53.392Z,5.00
2023-02-28T07:49:53.388Z,4.90
2023-02-28T07:50:53.341Z,4.30
2023-02-28T07:51:53.363Z,4.80
2023-02-28T07:52:54.163Z,4.70
2023-02-28T07:53:53.354Z,4.20
2023-02-28T07:54:53.331Z,4.10
2023-02-28T07:55:56.675Z,4.40
2023-02-28T07:56:53.321Z,4.10
2023-02-28T07:57:53.338Z,4.00
2023-02-28T07:58:53.345Z,3.80
2023-02-28T07:59:53.318Z,4.20
2023-02-28T08:00:53.331Z,3.80
2023-02-28T08:01:53.320Z,3.70
2023-02-28T08:02:53.312Z,3.80
2023-02-28T08:03:53.301Z,3.80
2023-02-28T08:04:53.436Z,3.70
2023-02-28T08:05:53.269Z,3.70
2023-02-28T08:06:53.270Z,3.70
2023-02-28T08:07:53.272Z,3.80
2023-02-28T08:08:54.715Z,4.20
2023-02-28T08:09:53.268Z,4.00
2023-02-28T08:10:53.241Z,3.70
2023-02-28T08:11:53.247Z,3.90
2023-02-28T08:12:53.217Z,3.90
2023-02-28T08:13:53.226Z,4.10
2023-02-28T08:14:53.914Z,4.40
2023-02-28T08:15:53.541Z,3.80
2023-02-28T08:16:53.197Z,4.00
2023-02-28T08:17:53.173Z,4.20
2023-02-28T08:18:53.202Z,4.10
2023-02-28T08:19:53.191Z,4.30
2023-02-28T08:20:53.166Z,4.20
2023-02-28T08:21:54.602Z,4.10
2023-02-28T08:22:53.143Z,3.90
2023-02-28T08:23:53.149Z,4.10
2023-02-28T08:24:53.141Z,4.20
2023-02-28T08:25:54.598Z,4.20
2023-02-28T08:26:53.141Z,4.00
2023-02-28T08:27:54.058Z,4.10
2023-02-28T08:28:56.075Z,4.20
2023-02-28T08:29:53.390Z,4.00
2023-02-28T08:30:53.089Z,4.00
2023-02-28T08:31:53.987Z,4.00
2023-02-28T08:32:53.095Z,4.00
2023-02-28T08:33:53.070Z,4.30
2023-02-28T08:34:53.257Z,4.10
2023-02-28T08:35:53.164Z,4.20
2023-02-28T08:36:53.085Z,4.30
2023-02-28T08:37:53.074Z,4.10
2023-02-28T08:38:53.039Z,4.30
2023-02-28T08:39:56.122Z,4.40
2023-02-28T08:40:53.036Z,4.50
2023-02-28T08:42:02.057Z,4.10
2023-02-28T08:42:53.047Z,4.40
2023-02-28T08:43:53.014Z,4.80
2023-02-28T08:44:53.045Z,4.40
2023-02-28T08:45:53.070Z,4.70
2023-02-28T08:46:52.988Z,4.20
2023-02-28T08:47:52.978Z,4.30
2023-02-28T08:48:52.980Z,4.70
2023-02-28T08:49:52.978Z,4.50
2023-02-28T08:51:06.329Z,4.60
2023-02-28T08:51:52.958Z,4.70
2023-02-28T08:52:52.957Z,4.90
2023-02-28T08:53:52.958Z,5.00
2023-02-28T08:54:52.972Z,4.90
2023-02-28T08:55:52.938Z,4.90
2023-02-28T08:56:52.948Z,4.40
2023-02-28T08:57:52.957Z,4.40
2023-02-28T08:58:52.926Z,4.20
2023-02-28T08:59:53.184Z,4.10
2023-02-28T09:00:53.264Z,4.40
2023-02-28T09:01:52.912Z,4.30
2023-02-28T09:02:52.896Z,4.50
2023-02-28T09:03:52.920Z,4.50
2023-02-28T09:04:52.871Z,3.90
2023-02-28T09:05:53.035Z,4.20
2023-02-28T09:06:52.866Z,3.80
2023-02-28T09:07:52.856Z,4.10
2023-02-28T09:08:53.459Z,4.10
2023-02-28T09:09:52.871Z,3.70
2023-02-28T09:10:52.831Z,4.20
2023-02-28T09:11:52.818Z,4.10
2023-02-28T09:12:53.479Z,4.30
2023-02-28T09:13:53.487Z,4.00
2023-02-28T09:14:52.809Z,4.50
2023-02-28T09:15:52.816Z,4.20
2023-02-28T09:16:52.829Z,4.20
2023-02-28T09:17:52.777Z,4.00
2023-02-28T09:18:52.788Z,4.40
2023-02-28T09:19:52.776Z,4.00
2023-02-28T09:20:52.777Z,3.60
2023-02-28T09:21:52.756Z,4.30
2023-02-28T09:22:52.794Z,3.90
2023-02-28T09:23:54.182Z,4.00
2023-02-28T09:24:52.798Z,3.90
2023-02-28T09:25:52.896Z,3.70
2023-02-28T09:27:03.735Z,3.60
2023-02-28T09:27:54.175Z,3.50
2023-02-28T09:28:52.776Z,3.60
2023-02-28T09:29:52.730Z,3.80
2023-02-28T09:30:53.468Z,3.90
2023-02-28T09:31:52.740Z,3.80
2023-02-28T09:32:52.734Z,3.90
2023-02-28T09:33:53.672Z,3.70
2023-02-28T09:34:52.679Z,3.80
2023-02-28T09:35:53.260Z,3.30
2023-02-28T09:36:53.008Z,3.50
2023-02-28T09:37:52.664Z,3.40
2023-02-28T09:38:54.241Z,3.60
2023-02-28T09:39:52.651Z,3.40
2023-02-28T09:40:52.652Z,3.90
2023-02-28T09:41:52.631Z,3.50
2023-02-28T09:42:52.642Z,3.50
2023-02-28T09:43:53.418Z,3.80
2023-02-28T09:44:52.629Z,3.20
2023-02-28T09:45:54.112Z,3.50
2023-02-28T09:46:52.612Z,3.10
2023-02-28T09:47:53.123Z,3.50
2023-02-28T09:48:52.589Z,3.40
2023-02-28T09:49:52.581Z,3.70
2023-02-28T09:50:52.762Z,3.20
2023-02-28T09:51:54.025Z,3.00
2023-02-28T09:52:52.559Z,2.90
2023-02-28T09:54:01.265Z,2.90
2023-02-28T09:54:52.553Z,3.10
2023-02-28T09:55:52.558Z,2.80
2023-02-28T09:56:52.529Z,2.70
2023-02-28T09:57:52.539Z,2.70
2023-02-28T09:58:52.563Z,2.60
2023-02-28T09:59:52.791Z,2.70
2023-02-28T10:00:52.536Z,2.50
2023-02-28T10:01:52.585Z,2.90
2023-02-28T10:02:52.812Z,3.00
2023-02-28T10:03:52.482Z,2.50
2023-02-28T10:04:52.626Z,2.60
2023-02-28T10:05:52.529Z,2.60
2023-02-28T10:06:52.457Z,2.50
2023-02-28T10:07:52.473Z,2.60
2023-02-28T10:08:52.456Z,2.70
2023-02-28T10:09:52.449Z,2.80
2023-02-28T10:10:52.440Z,2.60
2023-02-28T10:11:53.272Z,2.50
2023-02-28T10:12:53.886Z,2.50
2023-02-28T10:13:52.486Z,2.60
2023-02-28T10:14:52.505Z,2.70
2023-02-28T10:15:52.562Z,2.70
2023-02-28T10:16:52.736Z,2.60
2023-02-28T10:17:55.534Z,2.60
2023-02-28T10:18:52.370Z,2.50
2023-02-28T10:19:52.375Z,2.70
2023-02-28T10:20:52.361Z,2.50
2023-02-28T10:21:52.401Z,2.70
2023-02-28T10:22:52.590Z,3.10
2023-02-28T10:23:52.610Z,2.50
2023-02-28T10:24:52.619Z,3.00
2023-02-28T10:25:52.332Z,2.60
2023-02-28T10:26:52.347Z,2.70
2023-02-28T10:27:52.664Z,2.70
2023-02-28T10:28:52.828Z,2.90
2023-02-28T10:29:52.812Z,2.60
2023-02-28T10:30:52.895Z,2.70
2023-02-28T10:31:52.333Z,3.00
2023-02-28T10:32:52.315Z,2.70
2023-02-28T10:33:52.280Z,2.20
2023-02-28T10:34:52.298Z,2.60
2023-02-28T10:35:52.435Z,2.50
2023-02-28T10:36:52.309Z,2.70
2023-02-28T10:37:52.248Z,2.70
2023-02-28T10:38:52.237Z,2.60
2023-02-28T10:39:52.270Z,2.30
2023-02-28T10:40:52.250Z,2.50
2023-02-28T10:41:53.844Z,2.70
2023-02-28T10:42:52.248Z,2.90
2023-02-28T10:43:52.235Z,2.60
2023-02-28T10:44:52.207Z,2.50
2023-02-28T10:45:52.216Z,2.80
2023-02-28T10:46:52.263Z,2.50
2023-02-28T10:47:54.014Z,2.70
2023-02-28T10:48:52.185Z,2.50
2023-02-28T10:49:52.721Z,2.80
2023-02-28T10:50:52.164Z,2.70
2023-02-28T10:51:52.194Z,2.80
2023-02-28T10:52:52.155Z,2.80
2023-02-28T10:54:01.193Z,2.70
2023-02-28T10:54:52.960Z,2.60
2023-02-28T10:55:52.758Z,2.90
2023-02-28T10:56:52.142Z,2.80
2023-02-28T10:57:52.134Z,2.80
2023-02-28T10:58:53.099Z,2.80
2023-02-28T10:59:52.104Z,2.70
2023-02-28T11:00:52.568Z,2.90
2023-02-28T11:01:52.127Z,3.00
2023-02-28T11:02:52.180Z,3.00
2023-02-28T11:03:52.196Z,3.10
2023-02-28T11:04:52.298Z,3.00
2023-02-28T11:05:52.077Z,3.00
2023-02-28T11:06:52.208Z,3.10
2023-02-28T11:07:53.423Z,3.60
2023-02-28T11:08:52.215Z,2.80
2023-02-28T11:09:52.040Z,2.80
2023-02-28T11:10:52.035Z,3.00
2023-02-28T11:11:52.033Z,3.00
2023-02-28T11:12:53.533Z,2.80
2023-02-28T11:13:52.266Z,3.10
2023-02-28T11:14:52.017Z,3.30
2023-02-28T11:15:52.022Z,3.00
2023-02-28T11:16:52.278Z,2.90
2023-02-28T11:17:52.073Z,3.20
2023-02-28T11:18:51.981Z,3.10
2023-02-28T11:19:51.981Z,3.20
2023-02-28T11:20:52.011Z,3.10
2023-02-28T11:21:52.122Z,3.00
2023-02-28T11:22:52.120Z,3.20
2023-02-28T11:23:51.950Z,3.00
2023-02-28T11:24:51.932Z,3.20
2023-02-28T11:25:51.937Z,3.50
2023-02-28T11:26:51.916Z,3.20
2023-02-28T11:27:51.958Z,3.30
2023-02-28T11:28:51.956Z,3.30
2023-02-28T11:29:51.899Z,3.30
2023-02-28T11:30:52.178Z,3.30
2023-02-28T11:31:51.922Z,3.40
2023-02-28T11:32:51.923Z,3.20
2023-02-28T11:33:52.206Z,3.30
2023-02-28T11:34:51.883Z,3.00
2023-02-28T11:35:51.854Z,3.30
2023-02-28T11:36:51.835Z,3.10
2023-02-28T11:37:52.036Z,3.00
2023-02-28T11:38:51.824Z,3.10
2023-02-28T11:39:52.136Z,3.00
2023-02-28T11:40:51.827Z,2.80
2023-02-28T11:41:52.281Z,2.80
2023-02-28T11:42:52.285Z,2.80
2023-02-28T11:43:51.816Z,2.60
2023-02-28T11:44:52.276Z,2.90
2023-02-28T11:45:51.793Z,2.90
2023-02-28T11:46:52.700Z,3.00
2023-02-28T11:47:51.864Z,3.10
2023-02-28T11:50:17.686Z,2.90
2023-02-28T11:51:17.696Z,3.00
2023-02-28T11:52:17.708Z,3.30
2023-02-28T11:53:17.711Z,2.80
2023-02-28T11:54:17.705Z,3.10
2023-02-28T11:55:17.718Z,3.20
2023-02-28T11:56:17.644Z,3.10
2023-02-28T11:57:17.739Z,3.20
2023-02-28T11:58:17.756Z,3.20
2023-02-28T11:59:17.750Z,2.90
2023-02-28T12:00:17.771Z,3.00
2023-02-28T12:01:17.771Z,3.00
2023-02-28T12:02:17.822Z,3.30
2023-02-28T12:03:17.840Z,3.00
2023-02-28T12:04:17.598Z,2.80
2023-02-28T12:05:17.802Z,3.60
2023-02-28T12:06:17.818Z,3.10
2023-02-28T12:07:17.589Z,3.10
2023-02-28T12:08:17.582Z,3.20
2023-02-28T12:09:17.586Z,2.80
2023-02-28T12:10:17.554Z,3.30
2023-02-28T12:11:17.597Z,3.40
2023-02-28T12:12:17.689Z,3.10
2023-02-28T12:13:17.564Z,3.00
2023-02-28T12:14:17.696Z,3.00
2023-02-28T12:15:17.704Z,3.30
2023-02-28T12:16:17.559Z,3.00
2023-02-28T12:17:17.712Z,2.70
2023-02-28T12:18:17.696Z,3.20
2023-02-28T12:19:17.615Z,2.90
2023-02-28T12:20:17.612Z,3.20
2023-02-28T12:21:17.714Z,3.20
2023-02-28T12:22:17.514Z,2.90
2023-02-28T12:23:17.514Z,2.70
2023-02-28T12:24:17.488Z,3.20
2023-02-28T12:25:17.585Z,3.00
2023-02-28T12:26:17.533Z,2.80
2023-02-28T12:27:17.638Z,3.00
2023-02-28T12:28:17.419Z,2.80
2023-02-28T12:29:17.770Z,3.00
2023-02-28T12:30:17.575Z,2.70
2023-02-28T12:31:17.857Z,2.60
2023-02-28T12:32:17.995Z,3.00
2023-02-28T12:33:17.886Z,2.70
2023-02-28T12:34:17.697Z,2.80
2023-02-28T12:35:17.466Z,2.80
2023-02-28T12:36:17.890Z,3.00
2023-02-28T12:37:17.687Z,2.90
2023-02-28T12:38:17.407Z,2.90
2023-02-28T12:39:17.438Z,2.80
2023-02-28T12:40:17.652Z,2.80
2023-02-28T12:41:17.635Z,3.10
2023-02-28T12:42:17.651Z,3.10
2023-02-28T12:43:17.344Z,2.90
2023-02-28T12:44:17.453Z,2.90
2023-02-28T12:45:17.964Z,2.90
2023-02-28T12:46:17.699Z,3.10
2023-02-28T12:47:17.764Z,2.90
2023-02-28T12:48:18.054Z,3.10
2023-02-28T12:49:18.118Z,3.00
2023-02-28T12:50:17.983Z,3.10
2023-02-28T12:51:17.382Z,3.40
2023-02-28T12:52:18.140Z,3.00
2023-02-28T12:53:18.141Z,3.30
2023-02-28T12:54:17.726Z,3.10
2023-02-28T12:55:18.003Z,3.30
2023-02-28T12:56:17.242Z,3.60
2023-02-28T12:57:17.235Z,3.20
2023-02-28T12:58:17.240Z,3.30
2023-02-28T12:59:17.230Z,3.40
2023-02-28T13:00:17.258Z,3.50
2023-02-28T13:01:17.266Z,3.40
2023-02-28T13:02:17.431Z,3.50
2023-02-28T13:03:17.371Z,3.30
2023-02-28T13:04:17.253Z,3.20
2023-02-28T13:05:17.487Z,3.30
2023-02-28T13:06:17.268Z,3.20
2023-02-28T13:07:17.486Z,3.60
2023-02-28T13:08:17.206Z,3.20
2023-02-28T13:09:17.622Z,3.40
2023-02-28T13:10:17.220Z,3.50
2023-02-28T13:11:21.585Z,3.00
2023-02-28T13:12:17.244Z,3.30
2023-02-28T13:13:17.246Z,3.00
2023-02-28T13:14:17.332Z,3.30
2023-02-28T13:15:17.457Z,3.80
2023-02-28T13:16:17.496Z,3.40
2023-02-28T13:17:17.473Z,3.20
2023-02-28T13:18:17.132Z,3.40
2023-02-28T13:19:17.110Z,3.60
2023-02-28T13:20:17.576Z,3.10